sensor_id;sensor_type;location;lat;lon;timestamp;temperature;humidity
69895;DHT22;57172;52.034;5.090;2023-10-09T00:02:12;16.10;83.10
69895;DHT22;57172;52.034;5.090;2023-10-09T00:04:43;16.10;83.10
69895;DHT22;57172;52.034;5.090;2023-10-09T00:07:12;16.10;83.00
69895;DHT22;57172;52.034;5.090;2023-10-09T00:09:44;16.10;82.90
69895;DHT22;57172;52.034;5.090;2023-10-09T00:12:18;16.10;83.00
69895;DHT22;57172;52.034;5.090;2023-10-09T00:14:50;16.10;82.90
69895;DHT22;57172;52.034;5.090;2023-10-09T00:17:17;16.10;82.90
69895;DHT22;57172;52.034;5.090;2023-10-09T00:19:52;16.20;82.90
69895;DHT22;57172;52.034;5.090;2023-10-09T00:22:21;16.20;82.80
69895;DHT22;57172;52.034;5.090;2023-10-09T00:24:55;16.20;82.70
69895;DHT22;57172;52.034;5.090;2023-10-09T00:27:39;16.30;82.60
69895;DHT22;57172;52.034;5.090;2023-10-09T00:30:11;16.30;82.50
69895;DHT22;57172;52.034;5.090;2023-10-09T00:32:42;16.30;82.50
69895;DHT22;57172;52.034;5.090;2023-10-09T00:35:18;16.30;82.40
69895;DHT22;57172;52.034;5.090;2023-10-09T00:38:07;16.30;82.40
69895;DHT22;57172;52.034;5.090;2023-10-09T00:40:47;16.40;82.30
69895;DHT22;57172;52.034;5.090;2023-10-09T00:43:23;16.40;82.20
69895;DHT22;57172;52.034;5.090;2023-10-09T00:46:00;16.40;82.20
69895;DHT22;57172;52.034;5.090;2023-10-09T00:48:38;16.50;82.20
69895;DHT22;57172;52.034;5.090;2023-10-09T00:51:09;16.50;82.00
69895;DHT22;57172;52.034;5.090;2023-10-09T00:53:48;16.50;82.00
69895;DHT22;57172;52.034;5.090;2023-10-09T00:56:22;16.60;81.90
69895;DHT22;57172;52.034;5.090;2023-10-09T00:58:57;16.60;81.80
69895;DHT22;57172;52.034;5.090;2023-10-09T01:01:34;16.60;81.70
69895;DHT22;57172;52.034;5.090;2023-10-09T01:04:07;16.70;81.70
69895;DHT22;57172;52.034;5.090;2023-10-09T01:06:46;16.70;81.50
69895;DHT22;57172;52.034;5.090;2023-10-09T01:09:32;16.70;81.50
69895;DHT22;57172;52.034;5.090;2023-10-09T01:12:04;16.80;81.40
69895;DHT22;57172;52.034;5.090;2023-10-09T01:14:32;16.80;81.40
69895;DHT22;57172;52.034;5.090;2023-10-09T01:17:07;16.90;81.30
69895;DHT22;57172;52.034;5.090;2023-10-09T01:19:35;16.90;81.20
69895;DHT22;57172;52.034;5.090;2023-10-09T01:22:02;16.90;81.00
69895;DHT22;57172;52.034;5.090;2023-10-09T01:24:43;17.00;81.00
69895;DHT22;57172;52.034;5.090;2023-10-09T01:27:10;17.00;80.90
69895;DHT22;57172;52.034;5.090;2023-10-09T01:29:44;17.00;80.90
69895;DHT22;57172;52.034;5.090;2023-10-09T01:32:13;17.10;80.90
69895;DHT22;57172;52.034;5.090;2023-10-09T01:34:44;17.10;80.80
69895;DHT22;57172;52.034;5.090;2023-10-09T01:40:02;17.20;80.60
69895;DHT22;57172;52.034;5.090;2023-10-09T01:42:48;17.20;80.50
69895;DHT22;57172;52.034;5.090;2023-10-09T01:45:16;17.20;80.40
69895;DHT22;57172;52.034;5.090;2023-10-09T01:47:45;17.20;80.40
69895;DHT22;57172;52.034;5.090;2023-10-09T01:50:19;17.30;80.40
69895;DHT22;57172;52.034;5.090;2023-10-09T01:52:49;17.20;80.30
69895;DHT22;57172;52.034;5.090;2023-10-09T01:55:17;17.30;80.30
69895;DHT22;57172;52.034;5.090;2023-10-09T01:58:03;17.30;80.10
69895;DHT22;57172;52.034;5.090;2023-10-09T02:00:50;17.30;80.20
69895;DHT22;57172;52.034;5.090;2023-10-09T02:03:23;17.30;80.10
69895;DHT22;57172;52.034;5.090;2023-10-09T02:05:53;17.30;80.10
69895;DHT22;57172;52.034;5.090;2023-10-09T02:08:20;17.30;80.00
69895;DHT22;57172;52.034;5.090;2023-10-09T02:10:53;17.30;80.00
69895;DHT22;57172;52.034;5.090;2023-10-09T02:13:23;17.30;80.10
69895;DHT22;57172;52.034;5.090;2023-10-09T02:15:56;17.30;80.10
69895;DHT22;57172;52.034;5.090;2023-10-09T02:18:39;17.30;80.10
69895;DHT22;57172;52.034;5.090;2023-10-09T02:21:07;17.30;80.10
69895;DHT22;57172;52.034;5.090;2023-10-09T02:23:35;17.30;80.10
69895;DHT22;57172;52.034;5.090;2023-10-09T02:26:19;17.30;80.20
69895;DHT22;57172;52.034;5.090;2023-10-09T02:28:53;17.30;80.20
69895;DHT22;57172;52.034;5.090;2023-10-09T02:31:40;17.30;80.20
69895;DHT22;57172;52.034;5.090;2023-10-09T02:34:08;17.20;80.10
69895;DHT22;57172;52.034;5.090;2023-10-09T02:36:35;17.20;80.30
69895;DHT22;57172;52.034;5.090;2023-10-09T02:39:10;17.20;80.20
69895;DHT22;57172;52.034;5.090;2023-10-09T02:41:57;17.20;80.30
69895;DHT22;57172;52.034;5.090;2023-10-09T02:44:29;17.20;80.20
69895;DHT22;57172;52.034;5.090;2023-10-09T02:47:07;17.20;80.30
69895;DHT22;57172;52.034;5.090;2023-10-09T02:49:44;17.20;80.20
69895;DHT22;57172;52.034;5.090;2023-10-09T02:52:15;17.20;80.30
69895;DHT22;57172;52.034;5.090;2023-10-09T02:54:46;17.10;80.40
69895;DHT22;57172;52.034;5.090;2023-10-09T02:57:20;17.10;80.40
69895;DHT22;57172;52.034;5.090;2023-10-09T02:59:51;17.10;80.40
69895;DHT22;57172;52.034;5.090;2023-10-09T03:02:19;17.10;80.40
69895;DHT22;57172;52.034;5.090;2023-10-09T03:04:46;17.10;80.60
69895;DHT22;57172;52.034;5.090;2023-10-09T03:07:13;17.00;80.80
69895;DHT22;57172;52.034;5.090;2023-10-09T03:09:41;17.00;80.80
69895;DHT22;57172;52.034;5.090;2023-10-09T03:12:08;17.00;80.80
69895;DHT22;57172;52.034;5.090;2023-10-09T03:14:40;17.00;81.00
69895;DHT22;57172;52.034;5.090;2023-10-09T03:17:11;17.00;81.10
69895;DHT22;57172;52.034;5.090;2023-10-09T03:19:39;17.00;81.10
69895;DHT22;57172;52.034;5.090;2023-10-09T03:22:07;17.00;81.20
69895;DHT22;57172;52.034;5.090;2023-10-09T03:24:39;17.00;81.40
69895;DHT22;57172;52.034;5.090;2023-10-09T03:27:17;17.00;81.50
69895;DHT22;57172;52.034;5.090;2023-10-09T03:29:45;17.00;81.70
69895;DHT22;57172;52.034;5.090;2023-10-09T03:32:17;17.10;81.70
69895;DHT22;57172;52.034;5.090;2023-10-09T03:34:44;17.10;82.00
69895;DHT22;57172;52.034;5.090;2023-10-09T03:37:11;17.10;82.00
69895;DHT22;57172;52.034;5.090;2023-10-09T03:39:58;17.10;82.10
69895;DHT22;57172;52.034;5.090;2023-10-09T03:42:25;17.10;82.20
69895;DHT22;57172;52.034;5.090;2023-10-09T03:44:53;17.10;82.20
69895;DHT22;57172;52.034;5.090;2023-10-09T03:47:24;17.20;82.10
69895;DHT22;57172;52.034;5.090;2023-10-09T03:50:01;17.20;82.30
69895;DHT22;57172;52.034;5.090;2023-10-09T03:52:41;17.20;82.20
69895;DHT22;57172;52.034;5.090;2023-10-09T03:55:08;17.20;82.20
69895;DHT22;57172;52.034;5.090;2023-10-09T03:57:38;17.20;82.30
69895;DHT22;57172;52.034;5.090;2023-10-09T04:00:07;17.20;82.30
69895;DHT22;57172;52.034;5.090;2023-10-09T04:02:40;17.30;82.30
69895;DHT22;57172;52.034;5.090;2023-10-09T04:05:08;17.30;82.20
69895;DHT22;57172;52.034;5.090;2023-10-09T04:07:35;17.30;82.30
69895;DHT22;57172;52.034;5.090;2023-10-09T04:10:02;17.30;82.30
69895;DHT22;57172;52.034;5.090;2023-10-09T04:12:49;17.30;82.20
69895;DHT22;57172;52.034;5.090;2023-10-09T04:15:19;17.40;82.20
69895;DHT22;57172;52.034;5.090;2023-10-09T04:17:50;17.40;82.20
69895;DHT22;57172;52.034;5.090;2023-10-09T04:20:18;17.40;82.20
69895;DHT22;57172;52.034;5.090;2023-10-09T04:22:46;17.40;82.20
69895;DHT22;57172;52.034;5.090;2023-10-09T04:25:27;17.40;82.20
69895;DHT22;57172;52.034;5.090;2023-10-09T04:27:58;17.40;82.30
69895;DHT22;57172;52.034;5.090;2023-10-09T04:30:44;17.40;82.40
69895;DHT22;57172;52.034;5.090;2023-10-09T04:33:14;17.40;82.50
69895;DHT22;57172;52.034;5.090;2023-10-09T04:36:07;17.40;82.60
69895;DHT22;57172;52.034;5.090;2023-10-09T04:38:53;17.40;82.70
69895;DHT22;57172;52.034;5.090;2023-10-09T04:41:33;17.40;82.90
69895;DHT22;57172;52.034;5.090;2023-10-09T04:44:19;17.40;83.10
69895;DHT22;57172;52.034;5.090;2023-10-09T04:46:51;17.40;83.10
69895;DHT22;57172;52.034;5.090;2023-10-09T04:49:50;17.50;83.00
69895;DHT22;57172;52.034;5.090;2023-10-09T04:52:23;17.50;83.00
69895;DHT22;57172;52.034;5.090;2023-10-09T04:54:57;17.50;83.10
69895;DHT22;57172;52.034;5.090;2023-10-09T05:00:05;17.50;83.10
69895;DHT22;57172;52.034;5.090;2023-10-09T05:03:01;17.50;83.00
69895;DHT22;57172;52.034;5.090;2023-10-09T05:05:39;17.60;82.90
69895;DHT22;57172;52.034;5.090;2023-10-09T05:08:15;17.60;83.00
69895;DHT22;57172;52.034;5.090;2023-10-09T05:10:55;17.60;83.00
69895;DHT22;57172;52.034;5.090;2023-10-09T05:13:35;17.60;83.00
69895;DHT22;57172;52.034;5.090;2023-10-09T05:18:46;17.60;82.90
69895;DHT22;57172;52.034;5.090;2023-10-09T05:21:34;17.60;83.00
69895;DHT22;57172;52.034;5.090;2023-10-09T05:24:12;17.60;83.00
69895;DHT22;57172;52.034;5.090;2023-10-09T05:26:45;17.70;82.90
69895;DHT22;57172;52.034;5.090;2023-10-09T05:29:18;17.70;82.80
69895;DHT22;57172;52.034;5.090;2023-10-09T05:32:04;17.70;82.80
69895;DHT22;57172;52.034;5.090;2023-10-09T05:34:35;17.70;82.80
69895;DHT22;57172;52.034;5.090;2023-10-09T05:37:22;17.70;82.90
69895;DHT22;57172;52.034;5.090;2023-10-09T05:39:53;17.70;82.90
69895;DHT22;57172;52.034;5.090;2023-10-09T05:42:34;17.70;83.00
69895;DHT22;57172;52.034;5.090;2023-10-09T05:45:05;17.70;82.90
69895;DHT22;57172;52.034;5.090;2023-10-09T05:47:46;17.70;82.90
69895;DHT22;57172;52.034;5.090;2023-10-09T05:50:32;17.70;82.90
69895;DHT22;57172;52.034;5.090;2023-10-09T05:53:04;17.70;82.90
69895;DHT22;57172;52.034;5.090;2023-10-09T05:55:43;17.70;82.90
69895;DHT22;57172;52.034;5.090;2023-10-09T05:58:29;17.70;82.90
69895;DHT22;57172;52.034;5.090;2023-10-09T06:01:14;17.70;82.80
69895;DHT22;57172;52.034;5.090;2023-10-09T06:04:00;17.70;82.80
69895;DHT22;57172;52.034;5.090;2023-10-09T06:06:45;17.70;82.80
69895;DHT22;57172;52.034;5.090;2023-10-09T06:09:14;17.70;82.80
69895;DHT22;57172;52.034;5.090;2023-10-09T06:11:43;17.70;82.70
69895;DHT22;57172;52.034;5.090;2023-10-09T06:14:17;17.70;82.80
69895;DHT22;57172;52.034;5.090;2023-10-09T06:16:58;17.80;82.80
69895;DHT22;57172;52.034;5.090;2023-10-09T06:19:42;17.80;82.70
69895;DHT22;57172;52.034;5.090;2023-10-09T06:22:12;17.80;82.70
69895;DHT22;57172;52.034;5.090;2023-10-09T06:24:39;17.80;82.70
69895;DHT22;57172;52.034;5.090;2023-10-09T06:27:11;17.80;82.70
69895;DHT22;57172;52.034;5.090;2023-10-09T06:29:39;17.80;82.70
69895;DHT22;57172;52.034;5.090;2023-10-09T06:32:26;17.80;82.70
69895;DHT22;57172;52.034;5.090;2023-10-09T06:35:04;17.80;82.70
69895;DHT22;57172;52.034;5.090;2023-10-09T06:37:50;17.80;82.70
69895;DHT22;57172;52.034;5.090;2023-10-09T06:40:29;17.80;82.80
69895;DHT22;57172;52.034;5.090;2023-10-09T06:43:15;17.80;82.80
69895;DHT22;57172;52.034;5.090;2023-10-09T06:46:03;17.90;82.80
69895;DHT22;57172;52.034;5.090;2023-10-09T06:48:50;17.90;82.80
69895;DHT22;57172;52.034;5.090;2023-10-09T06:51:24;17.90;82.80
69895;DHT22;57172;52.034;5.090;2023-10-09T06:53:57;17.90;82.80
69895;DHT22;57172;52.034;5.090;2023-10-09T06:56:44;18.00;82.70
69895;DHT22;57172;52.034;5.090;2023-10-09T06:59:21;18.00;82.70
69895;DHT22;57172;52.034;5.090;2023-10-09T07:01:49;18.10;82.50
69895;DHT22;57172;52.034;5.090;2023-10-09T07:04:35;18.10;82.40
69895;DHT22;57172;52.034;5.090;2023-10-09T07:07:03;18.10;82.40
69895;DHT22;57172;52.034;5.090;2023-10-09T07:09:47;18.20;82.40
69895;DHT22;57172;52.034;5.090;2023-10-09T07:12:33;18.20;82.20
69895;DHT22;57172;52.034;5.090;2023-10-09T07:15:01;18.20;82.10
69895;DHT22;57172;52.034;5.090;2023-10-09T07:17:28;18.20;82.00
69895;DHT22;57172;52.034;5.090;2023-10-09T07:20:12;18.20;82.00
69895;DHT22;57172;52.034;5.090;2023-10-09T07:22:40;18.30;82.10
69895;DHT22;57172;52.034;5.090;2023-10-09T07:25:20;18.30;82.00
69895;DHT22;57172;52.034;5.090;2023-10-09T07:28:11;18.30;81.90
69895;DHT22;57172;52.034;5.090;2023-10-09T07:31:04;18.30;81.80
69895;DHT22;57172;52.034;5.090;2023-10-09T07:33:31;18.30;81.80
69895;DHT22;57172;52.034;5.090;2023-10-09T07:36:17;18.30;81.80
69895;DHT22;57172;52.034;5.090;2023-10-09T07:38:56;18.30;81.90
69895;DHT22;57172;52.034;5.090;2023-10-09T07:41:23;18.40;82.00
69895;DHT22;57172;52.034;5.090;2023-10-09T07:43:50;18.40;82.20
69895;DHT22;57172;52.034;5.090;2023-10-09T07:46:18;18.40;82.40
69895;DHT22;57172;52.034;5.090;2023-10-09T07:49:01;18.40;82.70
69895;DHT22;57172;52.034;5.090;2023-10-09T07:51:39;18.50;82.90
69895;DHT22;57172;52.034;5.090;2023-10-09T07:54:10;18.60;83.40
69895;DHT22;57172;52.034;5.090;2023-10-09T07:56:43;18.70;83.70
69895;DHT22;57172;52.034;5.090;2023-10-09T07:59:13;18.90;84.10
69895;DHT22;57172;52.034;5.090;2023-10-09T08:01:44;19.10;83.80
69895;DHT22;57172;52.034;5.090;2023-10-09T08:04:40;19.30;82.90
69895;DHT22;57172;52.034;5.090;2023-10-09T08:07:16;19.30;82.40
69895;DHT22;57172;52.034;5.090;2023-10-09T08:10:07;19.40;81.80
69895;DHT22;57172;52.034;5.090;2023-10-09T08:13:01;19.50;81.40
69895;DHT22;57172;52.034;5.090;2023-10-09T08:15:55;19.50;80.90
69895;DHT22;57172;52.034;5.090;2023-10-09T08:18:23;19.60;80.50
69895;DHT22;57172;52.034;5.090;2023-10-09T08:20:56;19.60;80.10
69895;DHT22;57172;52.034;5.090;2023-10-09T08:23:29;19.70;80.20
69895;DHT22;57172;52.034;5.090;2023-10-09T08:26:03;19.70;80.10
69895;DHT22;57172;52.034;5.090;2023-10-09T08:28:40;19.80;79.90
69895;DHT22;57172;52.034;5.090;2023-10-09T08:31:11;19.80;80.00
69895;DHT22;57172;52.034;5.090;2023-10-09T08:33:47;19.90;79.70
69895;DHT22;57172;52.034;5.090;2023-10-09T08:36:28;19.90;79.20
69895;DHT22;57172;52.034;5.090;2023-10-09T08:38:59;19.90;79.20
69895;DHT22;57172;52.034;5.090;2023-10-09T08:41:28;19.90;79.30
69895;DHT22;57172;52.034;5.090;2023-10-09T08:43:58;19.90;79.60
69895;DHT22;57172;52.034;5.090;2023-10-09T08:46:27;20.00;79.80
69895;DHT22;57172;52.034;5.090;2023-10-09T08:48:56;20.10;80.20
69895;DHT22;57172;52.034;5.090;2023-10-09T08:51:24;20.20;80.50
69895;DHT22;57172;52.034;5.090;2023-10-09T08:53:53;20.30;80.40
69895;DHT22;57172;52.034;5.090;2023-10-09T08:56:21;20.40;80.40
69895;DHT22;57172;52.034;5.090;2023-10-09T08:58:55;20.60;79.90
69895;DHT22;57172;52.034;5.090;2023-10-09T09:01:23;20.70;79.40
69895;DHT22;57172;52.034;5.090;2023-10-09T09:03:53;20.80;79.40
69895;DHT22;57172;52.034;5.090;2023-10-09T09:06:23;20.90;80.00
69895;DHT22;57172;52.034;5.090;2023-10-09T09:08:51;21.20;80.30
69895;DHT22;57172;52.034;5.090;2023-10-09T09:11:26;21.50;78.80
69895;DHT22;57172;52.034;5.090;2023-10-09T09:14:02;21.50;78.30
69895;DHT22;57172;52.034;5.090;2023-10-09T09:16:34;21.70;77.30
69895;DHT22;57172;52.034;5.090;2023-10-09T09:19:05;21.70;77.00
69895;DHT22;57172;52.034;5.090;2023-10-09T09:21:41;21.90;76.50
69895;DHT22;57172;52.034;5.090;2023-10-09T09:24:11;21.90;75.80
69895;DHT22;57172;52.034;5.090;2023-10-09T09:26:51;22.00;75.60
69895;DHT22;57172;52.034;5.090;2023-10-09T09:32:06;22.30;74.20
69895;DHT22;57172;52.034;5.090;2023-10-09T09:34:45;22.40;74.10
69895;DHT22;57172;52.034;5.090;2023-10-09T09:37:23;22.50;73.30
69895;DHT22;57172;52.034;5.090;2023-10-09T09:40:20;22.60;72.70
69895;DHT22;57172;52.034;5.090;2023-10-09T09:43:02;22.70;71.90
69895;DHT22;57172;52.034;5.090;2023-10-09T09:45:36;22.60;71.90
69895;DHT22;57172;52.034;5.090;2023-10-09T09:48:05;22.80;72.00
69895;DHT22;57172;52.034;5.090;2023-10-09T09:50:33;22.90;71.60
69895;DHT22;57172;52.034;5.090;2023-10-09T09:53:04;22.90;71.00
69895;DHT22;57172;52.034;5.090;2023-10-09T09:55:38;23.00;70.70
69895;DHT22;57172;52.034;5.090;2023-10-09T09:58:13;22.90;69.90
69895;DHT22;57172;52.034;5.090;2023-10-09T10:00:45;22.80;70.00
69895;DHT22;57172;52.034;5.090;2023-10-09T10:03:26;22.80;70.40
69895;DHT22;57172;52.034;5.090;2023-10-09T10:05:55;22.90;69.90
69895;DHT22;57172;52.034;5.090;2023-10-09T10:08:24;22.90;69.80
69895;DHT22;57172;52.034;5.090;2023-10-09T10:11:06;22.90;69.50
69895;DHT22;57172;52.034;5.090;2023-10-09T10:16:13;23.00;69.60
69895;DHT22;57172;52.034;5.090;2023-10-09T10:21:34;23.50;69.30
69895;DHT22;57172;52.034;5.090;2023-10-09T10:29:38;24.20;67.60
69895;DHT22;57172;52.034;5.090;2023-10-09T10:32:06;24.40;66.90
69895;DHT22;57172;52.034;5.090;2023-10-09T10:37:14;24.70;65.20
69895;DHT22;57172;52.034;5.090;2023-10-09T10:39:51;24.70;64.30
69895;DHT22;57172;52.034;5.090;2023-10-09T10:42:26;24.80;63.60
69895;DHT22;57172;52.034;5.090;2023-10-09T10:45:02;24.80;64.20
69895;DHT22;57172;52.034;5.090;2023-10-09T10:47:29;24.80;63.90
69895;DHT22;57172;52.034;5.090;2023-10-09T10:50:02;24.70;63.70
69895;DHT22;57172;52.034;5.090;2023-10-09T10:52:48;24.70;63.60
69895;DHT22;57172;52.034;5.090;2023-10-09T10:55:24;24.60;63.30
69895;DHT22;57172;52.034;5.090;2023-10-09T10:57:57;24.70;62.40
69895;DHT22;57172;52.034;5.090;2023-10-09T11:00:40;24.70;62.50
69895;DHT22;57172;52.034;5.090;2023-10-09T11:03:25;24.80;62.50
69895;DHT22;57172;52.034;5.090;2023-10-09T11:06:14;24.90;61.70
69895;DHT22;57172;52.034;5.090;2023-10-09T11:08:51;25.00;60.70
69895;DHT22;57172;52.034;5.090;2023-10-09T11:11:22;24.80;60.40
69895;DHT22;57172;52.034;5.090;2023-10-09T11:13:49;24.50;61.00
69895;DHT22;57172;52.034;5.090;2023-10-09T11:16:25;24.50;61.30
69895;DHT22;57172;52.034;5.090;2023-10-09T11:19:01;24.40;61.20
69895;DHT22;57172;52.034;5.090;2023-10-09T11:21:40;24.10;61.30
69895;DHT22;57172;52.034;5.090;2023-10-09T11:24:10;24.00;61.40
69895;DHT22;57172;52.034;5.090;2023-10-09T11:26:54;23.90;61.80
69895;DHT22;57172;52.034;5.090;2023-10-09T11:29:23;23.90;61.80
69895;DHT22;57172;52.034;5.090;2023-10-09T11:32:07;23.80;62.10
69895;DHT22;57172;52.034;5.090;2023-10-09T11:35:14;23.90;62.30
69895;DHT22;57172;52.034;5.090;2023-10-09T11:37:55;24.10;62.20
69895;DHT22;57172;52.034;5.090;2023-10-09T11:40:29;24.20;62.20
69895;DHT22;57172;52.034;5.090;2023-10-09T11:43:01;24.50;62.40
69895;DHT22;57172;52.034;5.090;2023-10-09T11:45:30;24.80;62.10
69895;DHT22;57172;52.034;5.090;2023-10-09T11:48:18;25.10;61.20
69895;DHT22;57172;52.034;5.090;2023-10-09T11:51:14;25.30;59.80
69895;DHT22;57172;52.034;5.090;2023-10-09T11:53:48;25.20;59.80
69895;DHT22;57172;52.034;5.090;2023-10-09T11:56:24;25.10;60.00
69895;DHT22;57172;52.034;5.090;2023-10-09T11:58:54;25.10;59.90
69895;DHT22;57172;52.034;5.090;2023-10-09T12:01:25;25.30;61.10
69895;DHT22;57172;52.034;5.090;2023-10-09T12:03:53;25.60;60.90
69895;DHT22;57172;52.034;5.090;2023-10-09T12:06:21;25.70;60.10
69895;DHT22;57172;52.034;5.090;2023-10-09T12:08:50;25.80;59.30
69895;DHT22;57172;52.034;5.090;2023-10-09T12:11:17;25.60;58.80
69895;DHT22;57172;52.034;5.090;2023-10-09T12:13:56;25.40;58.50
69895;DHT22;57172;52.034;5.090;2023-10-09T12:16:24;25.10;58.90
69895;DHT22;57172;52.034;5.090;2023-10-09T12:18:56;25.00;59.00
69895;DHT22;57172;52.034;5.090;2023-10-09T12:21:23;24.80;58.90
69895;DHT22;57172;52.034;5.090;2023-10-09T12:23:50;24.50;59.30
69895;DHT22;57172;52.034;5.090;2023-10-09T12:26:17;24.40;59.90
69895;DHT22;57172;52.034;5.090;2023-10-09T12:28:45;24.30;60.10
69895;DHT22;57172;52.034;5.090;2023-10-09T12:31:17;24.30;60.40
69895;DHT22;57172;52.034;5.090;2023-10-09T12:33:47;24.20;60.60
69895;DHT22;57172;52.034;5.090;2023-10-09T12:36:16;24.10;60.80
69895;DHT22;57172;52.034;5.090;2023-10-09T12:38:49;23.90;61.50
69895;DHT22;57172;52.034;5.090;2023-10-09T12:41:25;24.00;61.60
69895;DHT22;57172;52.034;5.090;2023-10-09T12:44:00;23.90;61.70
69895;DHT22;57172;52.034;5.090;2023-10-09T12:46:28;23.90;62.00
69895;DHT22;57172;52.034;5.090;2023-10-09T12:48:59;23.90;61.70
69895;DHT22;57172;52.034;5.090;2023-10-09T12:51:28;23.80;62.20
69895;DHT22;57172;52.034;5.090;2023-10-09T12:53:58;23.90;62.40
69895;DHT22;57172;52.034;5.090;2023-10-09T12:56:28;24.00;62.30
69895;DHT22;57172;52.034;5.090;2023-10-09T12:59:05;24.00;61.80
69895;DHT22;57172;52.034;5.090;2023-10-09T13:01:34;23.90;61.80
69895;DHT22;57172;52.034;5.090;2023-10-09T13:04:13;23.80;61.80
69895;DHT22;57172;52.034;5.090;2023-10-09T13:06:45;23.70;62.20
69895;DHT22;57172;52.034;5.090;2023-10-09T13:09:14;23.70;62.20
69895;DHT22;57172;52.034;5.090;2023-10-09T13:11:44;23.60;62.20
69895;DHT22;57172;52.034;5.090;2023-10-09T13:14:15;23.50;62.60
69895;DHT22;57172;52.034;5.090;2023-10-09T13:16:49;23.50;63.00
69895;DHT22;57172;52.034;5.090;2023-10-09T13:19:20;23.60;62.80
69895;DHT22;57172;52.034;5.090;2023-10-09T13:21:51;23.60;62.50
69895;DHT22;57172;52.034;5.090;2023-10-09T13:24:18;23.50;62.30
69895;DHT22;57172;52.034;5.090;2023-10-09T13:26:51;23.50;62.50
69895;DHT22;57172;52.034;5.090;2023-10-09T13:29:19;23.50;62.40
69895;DHT22;57172;52.034;5.090;2023-10-09T13:31:50;23.40;62.40
69895;DHT22;57172;52.034;5.090;2023-10-09T13:34:24;23.40;62.40
69895;DHT22;57172;52.034;5.090;2023-10-09T13:36:55;23.20;62.60
69895;DHT22;57172;52.034;5.090;2023-10-09T13:39:25;23.20;63.00
69895;DHT22;57172;52.034;5.090;2023-10-09T13:41:56;23.20;63.30
69895;DHT22;57172;52.034;5.090;2023-10-09T13:44:34;23.30;63.30
69895;DHT22;57172;52.034;5.090;2023-10-09T13:47:05;23.30;63.00
69895;DHT22;57172;52.034;5.090;2023-10-09T13:49:34;23.20;62.80
69895;DHT22;57172;52.034;5.090;2023-10-09T13:52:04;23.10;63.00
69895;DHT22;57172;52.034;5.090;2023-10-09T13:54:34;23.20;63.50
69895;DHT22;57172;52.034;5.090;2023-10-09T13:57:02;23.40;63.40
69895;DHT22;57172;52.034;5.090;2023-10-09T13:59:35;23.50;63.00
69895;DHT22;57172;52.034;5.090;2023-10-09T14:02:03;23.70;62.70
69895;DHT22;57172;52.034;5.090;2023-10-09T14:04:37;23.90;62.60
69895;DHT22;57172;52.034;5.090;2023-10-09T14:07:04;24.00;62.70
69895;DHT22;57172;52.034;5.090;2023-10-09T14:09:35;24.20;62.20
69895;DHT22;57172;52.034;5.090;2023-10-09T14:12:06;24.30;61.70
69895;DHT22;57172;52.034;5.090;2023-10-09T14:14:39;24.40;60.90
69895;DHT22;57172;52.034;5.090;2023-10-09T14:17:08;24.40;60.80
69895;DHT22;57172;52.034;5.090;2023-10-09T14:19:42;24.40;61.00
69895;DHT22;57172;52.034;5.090;2023-10-09T14:22:15;24.40;60.90
69895;DHT22;57172;52.034;5.090;2023-10-09T14:24:47;24.30;60.90
69895;DHT22;57172;52.034;5.090;2023-10-09T14:27:15;24.30;60.80
69895;DHT22;57172;52.034;5.090;2023-10-09T14:29:48;24.20;60.60
69895;DHT22;57172;52.034;5.090;2023-10-09T14:32:16;24.10;60.80
69895;DHT22;57172;52.034;5.090;2023-10-09T14:34:44;24.10;61.10
69895;DHT22;57172;52.034;5.090;2023-10-09T14:37:17;24.10;61.10
69895;DHT22;57172;52.034;5.090;2023-10-09T14:39:49;23.80;61.70
69895;DHT22;57172;52.034;5.090;2023-10-09T14:42:17;23.80;62.10
69895;DHT22;57172;52.034;5.090;2023-10-09T14:44:49;23.80;62.20
69895;DHT22;57172;52.034;5.090;2023-10-09T14:47:16;23.80;62.00
69895;DHT22;57172;52.034;5.090;2023-10-09T14:49:49;23.70;62.10
69895;DHT22;57172;52.034;5.090;2023-10-09T14:52:16;23.60;62.30
69895;DHT22;57172;52.034;5.090;2023-10-09T14:54:44;23.50;62.40
69895;DHT22;57172;52.034;5.090;2023-10-09T14:57:14;23.50;62.50
69895;DHT22;57172;52.034;5.090;2023-10-09T14:59:42;23.40;62.60
69895;DHT22;57172;52.034;5.090;2023-10-09T15:02:13;23.40;62.60
69895;DHT22;57172;52.034;5.090;2023-10-09T15:04:40;23.30;62.70
69895;DHT22;57172;52.034;5.090;2023-10-09T15:07:07;23.20;62.90
69895;DHT22;57172;52.034;5.090;2023-10-09T15:09:35;23.10;63.30
69895;DHT22;57172;52.034;5.090;2023-10-09T15:12:08;23.00;63.60
69895;DHT22;57172;52.034;5.090;2023-10-09T15:14:35;23.00;63.90
69895;DHT22;57172;52.034;5.090;2023-10-09T15:17:04;22.90;64.20
69895;DHT22;57172;52.034;5.090;2023-10-09T15:19:33;22.90;64.40
69895;DHT22;57172;52.034;5.090;2023-10-09T15:22:00;22.90;64.70
69895;DHT22;57172;52.034;5.090;2023-10-09T15:24:28;22.90;64.70
69895;DHT22;57172;52.034;5.090;2023-10-09T15:26:56;23.00;64.70
69895;DHT22;57172;52.034;5.090;2023-10-09T15:29:28;22.90;64.60
69895;DHT22;57172;52.034;5.090;2023-10-09T15:31:59;22.90;64.70
69895;DHT22;57172;52.034;5.090;2023-10-09T15:34:41;22.80;64.80
69895;DHT22;57172;52.034;5.090;2023-10-09T15:37:09;22.80;65.00
69895;DHT22;57172;52.034;5.090;2023-10-09T15:39:36;22.80;65.10
69895;DHT22;57172;52.034;5.090;2023-10-09T15:42:03;22.80;65.00
69895;DHT22;57172;52.034;5.090;2023-10-09T15:44:34;22.70;65.00
69895;DHT22;57172;52.034;5.090;2023-10-09T15:47:04;22.50;65.20
69895;DHT22;57172;52.034;5.090;2023-10-09T15:49:35;22.50;65.50
69895;DHT22;57172;52.034;5.090;2023-10-09T15:52:10;22.40;65.70
69895;DHT22;57172;52.034;5.090;2023-10-09T15:54:41;22.40;65.70
69895;DHT22;57172;52.034;5.090;2023-10-09T15:57:10;22.40;65.70
69895;DHT22;57172;52.034;5.090;2023-10-09T15:59:40;22.40;65.90
69895;DHT22;57172;52.034;5.090;2023-10-09T16:02:07;22.40;65.80
69895;DHT22;57172;52.034;5.090;2023-10-09T16:04:34;22.30;66.10
69895;DHT22;57172;52.034;5.090;2023-10-09T16:07:01;22.20;66.20
69895;DHT22;57172;52.034;5.090;2023-10-09T16:09:32;22.10;66.40
69895;DHT22;57172;52.034;5.090;2023-10-09T16:12:05;22.00;66.60
69895;DHT22;57172;52.034;5.090;2023-10-09T16:14:32;21.90;66.90
69895;DHT22;57172;52.034;5.090;2023-10-09T16:17:02;21.90;67.00
69895;DHT22;57172;52.034;5.090;2023-10-09T16:19:29;21.80;67.10
69895;DHT22;57172;52.034;5.090;2023-10-09T16:21:59;21.80;67.30
69895;DHT22;57172;52.034;5.090;2023-10-09T16:24:33;21.80;67.40
69895;DHT22;57172;52.034;5.090;2023-10-09T16:27:10;21.70;67.60
69895;DHT22;57172;52.034;5.090;2023-10-09T16:29:37;21.60;67.70
69895;DHT22;57172;52.034;5.090;2023-10-09T16:32:06;21.50;67.90
69895;DHT22;57172;52.034;5.090;2023-10-09T16:34:35;21.40;68.20
69895;DHT22;57172;52.034;5.090;2023-10-09T16:37:05;21.40;68.50